Time;durP1;ratioP1;P1;durP2;ratioP2;P2;SDS_P1;SDS_P2;PMS_P1;PMS_P2;Temp;Humidity;BMP_temperature;BMP_pressure;BME280_temperature;BME280_humidity;BME280_pressure;Samples;Min_cycle;Max_cycle;Signal;HPM_P1;HPM_P2
2022/08/01 00:00:09;;;;;;;11.33;10.40;;;19.10;99.90;;;;;;5034492;28;20263;-59
2022/08/01 00:02:38;;;;;;;11.00;9.47;;;19.10;99.90;;;;;;5054177;28;20734;-59
2022/08/01 00:05:08;;;;;;;12.93;11.73;;;19.00;99.90;;;;;;5053467;28;20237;-59
2022/08/01 00:07:37;;;;;;;10.97;9.97;;;19.00;99.90;;;;;;5054055;28;20694;-59
2022/08/01 00:10:07;;;;;;;11.60;10.40;;;19.00;99.90;;;;;;5053915;28;20550;-58
2022/08/01 00:12:35;;;;;;;12.77;11.47;;;19.00;99.90;;;;;;5053506;28;20256;-59
2022/08/01 00:15:05;;;;;;;10.57;9.57;;;19.00;99.90;;;;;;5054068;28;20262;-59
2022/08/01 00:17:34;;;;;;;13.40;12.20;;;19.00;99.90;;;;;;5054036;28;20761;-59
2022/08/01 00:20:05;;;;;;;11.10;10.13;;;19.00;99.90;;;;;;5054003;28;20239;-59
2022/08/01 00:22:34;;;;;;;11.50;10.50;;;19.00;99.90;;;;;;5057679;28;20325;-58
2022/08/01 00:25:02;;;;;;;11.53;10.03;;;18.90;99.90;;;;;;5054505;28;20633;-59
2022/08/01 00:27:31;;;;;;;11.10;10.00;;;19.00;99.90;;;;;;5053321;28;20297;-58
2022/08/01 00:30:05;;;;;;;13.47;12.13;;;19.00;99.90;;;;;;5053552;28;20617;-59
2022/08/01 00:32:42;;;;;;;11.17;10.17;;;18.90;99.90;;;;;;5053272;28;20254;-59
2022/08/01 00:35:11;;;;;;;12.50;11.27;;;18.90;99.90;;;;;;5045689;28;20235;-59
2022/08/01 00:37:39;;;;;;;11.67;10.57;;;18.90;99.90;;;;;;5053161;28;20254;-58
2022/08/01 00:40:08;;;;;;;12.00;10.80;;;18.80;99.90;;;;;;5053768;28;20590;-59
2022/08/01 00:42:37;;;;;;;11.87;10.70;;;18.80;99.90;;;;;;5052826;28;20230;-59
2022/08/01 00:45:11;;;;;;;12.40;11.20;;;18.80;99.90;;;;;;5053346;28;20234;-59
2022/08/01 00:47:41;;;;;;;13.70;11.07;;;18.80;99.90;;;;;;5053057;28;20260;-59
2022/08/01 00:50:10;;;;;;;11.87;10.70;;;18.80;99.90;;;;;;5053199;28;20237;-58
2022/08/01 00:52:41;;;;;;;11.63;10.20;;;18.70;99.90;;;;;;5057675;28;20266;-59
2022/08/01 00:55:10;;;;;;;11.13;9.33;;;18.70;99.90;;;;;;5044862;28;20242;-58
2022/08/01 00:57:42;;;;;;;10.63;9.53;;;18.70;99.90;;;;;;5052935;28;20241;-58
2022/08/01 01:00:31;;;;;;;9.97;9.03;;;18.70;99.90;;;;;;5052173;28;23281;-58
2022/08/01 01:03:10;;;;;;;11.83;10.27;;;18.80;99.90;;;;;;5053506;28;20689;-59
2022/08/01 01:05:49;;;;;;;9.17;8.10;;;18.80;99.90;;;;;;5052762;28;20308;-58
2022/08/01 01:08:23;;;;;;;10.57;9.53;;;18.80;99.90;;;;;;5045851;28;20233;-58
2022/08/01 01:10:56;;;;;;;9.80;9.00;;;18.70;99.90;;;;;;5051399;28;20229;-59
2022/08/01 01:13:34;;;;;;;9.07;8.17;;;18.70;99.90;;;;;;5052288;28;20333;-58
2022/08/01 01:16:17;;;;;;;9.93;8.27;;;18.70;99.90;;;;;;5052879;28;20720;-58
2022/08/01 01:18:50;;;;;;;8.97;8.10;;;18.70;99.90;;;;;;5052621;28;21327;-59
2022/08/01 01:21:45;;;;;;;9.67;8.07;;;18.70;99.90;;;;;;5053133;28;20332;-59
2022/08/01 01:24:29;;;;;;;8.67;7.83;;;18.70;99.90;;;;;;5058324;28;20709;-59
2022/08/01 01:27:07;;;;;;;8.53;7.73;;;18.60;99.90;;;;;;5052957;28;20590;-58
2022/08/01 01:29:42;;;;;;;9.33;8.17;;;18.60;99.90;;;;;;5052418;28;20248;-59
2022/08/01 01:32:33;;;;;;;8.90;8.00;;;18.60;99.90;;;;;;5052279;28;20238;-59
2022/08/01 01:35:06;;;;;;;8.90;7.93;;;18.60;99.90;;;;;;5052786;28;20295;-58
2022/08/01 01:37:36;;;;;;;11.20;7.60;;;18.60;99.90;;;;;;5052273;28;20275;-59
2022/08/01 01:40:06;;;;;;;7.73;7.07;;;18.50;99.90;;;;;;5052432;28;20225;-58
2022/08/01 01:42:35;;;;;;;8.43;7.30;;;18.50;99.90;;;;;;5052320;28;20256;-57
2022/08/01 01:45:07;;;;;;;7.10;6.40;;;18.50;99.90;;;;;;5052626;28;20260;-59
2022/08/01 01:47:36;;;;;;;7.07;6.47;;;18.60;99.90;;;;;;5052179;28;20230;-57
2022/08/01 01:50:07;;;;;;;7.43;6.40;;;18.50;99.90;;;;;;5053124;28;20280;-59
2022/08/01 01:52:39;;;;;;;8.33;6.53;;;18.50;99.90;;;;;;5056832;28;20246;-59
2022/08/01 01:55:09;;;;;;;6.73;6.07;;;18.50;99.90;;;;;;5053809;28;20574;-58
2022/08/01 01:57:41;;;;;;;7.20;5.90;;;18.50;99.90;;;;;;5056439;28;20233;-58
2022/08/01 02:00:16;;;;;;;6.30;5.70;;;18.50;99.90;;;;;;5056177;28;20275;-58
2022/08/01 02:02:45;;;;;;;5.23;4.73;;;18.50;99.90;;;;;;5055951;28;20248;-58
2022/08/01 02:05:14;;;;;;;6.33;5.30;;;18.60;99.90;;;;;;5056122;28;20225;-58
2022/08/01 02:07:44;;;;;;;6.53;5.90;;;18.50;99.90;;;;;;5056025;28;20282;-58
2022/08/01 02:10:18;;;;;;;5.30;4.87;;;18.50;99.90;;;;;;5036354;28;20246;-59
2022/08/01 02:12:49;;;;;;;5.10;4.60;;;18.60;99.90;;;;;;5036188;28;20326;-57
2022/08/01 02:15:20;;;;;;;5.10;4.70;;;18.50;99.90;;;;;;5036691;28;20785;-58
2022/08/01 02:17:50;;;;;;;6.83;5.03;;;18.50;99.90;;;;;;5036719;28;20560;-58
2022/08/01 02:20:19;;;;;;;5.00;4.43;;;18.50;99.90;;;;;;5055453;28;20223;-59
2022/08/01 02:22:51;;;;;;;5.43;4.93;;;18.50;99.90;;;;;;5061014;28;20234;-58
2022/08/01 02:25:26;;;;;;;5.13;4.63;;;18.50;99.90;;;;;;5056190;28;20754;-59
2022/08/01 02:28:00;;;;;;;4.43;4.03;;;18.50;99.90;;;;;;5056229;28;20710;-58
2022/08/01 02:30:34;;;;;;;5.67;4.70;;;18.50;99.90;;;;;;5055011;28;20634;-57
2022/08/01 02:33:06;;;;;;;6.13;4.93;;;18.50;99.90;;;;;;5055776;28;20245;-59
2022/08/01 02:35:45;;;;;;;5.10;4.17;;;18.50;99.90;;;;;;5055725;28;20232;-58
2022/08/01 02:38:36;;;;;;;6.33;4.73;;;18.50;99.90;;;;;;5051021;28;20232;-58
2022/08/01 02:41:08;;;;;;;4.80;4.40;;;18.40;99.90;;;;;;5055560;28;20325;-58
2022/08/01 02:43:39;;;;;;;4.80;4.30;;;18.40;99.90;;;;;;5055878;28;20269;-58
2022/08/01 02:46:12;;;;;;;5.47;4.63;;;18.40;99.90;;;;;;5056100;28;20234;-58
2022/08/01 02:48:43;;;;;;;5.20;4.03;;;18.30;99.90;;;;;;5055401;28;20233;-59
2022/08/01 02:51:13;;;;;;;4.47;3.90;;;18.30;99.90;;;;;;5055417;28;20661;-58
2022/08/01 02:53:43;;;;;;;4.73;3.83;;;18.30;99.90;;;;;;5056271;28;20242;-59
2022/08/01 02:56:12;;;;;;;4.40;4.00;;;18.40;99.90;;;;;;5047945;28;20242;-58
2022/08/01 02:58:43;;;;;;;4.03;3.60;;;18.30;99.90;;;;;;5055236;28;20271;-59
2022/08/01 03:01:14;;;;;;;4.00;3.60;;;18.30;99.90;;;;;;5054758;28;20313;-59
2022/08/01 03:03:43;;;;;;;4.40;3.73;;;18.30;99.90;;;;;;5055032;28;20652;-58
2022/08/01 03:06:12;;;;;;;4.57;3.90;;;18.30;99.90;;;;;;5052489;28;20263;-58
2022/08/01 03:08:41;;;;;;;4.80;3.77;;;18.30;99.90;;;;;;5055250;28;20258;-59
2022/08/01 03:11:09;;;;;;;4.07;3.73;;;18.30;99.90;;;;;;5055207;28;20237;-59
2022/08/01 03:13:39;;;;;;;4.60;4.07;;;18.30;99.90;;;;;;5054899;28;20254;-58
2022/08/01 03:16:08;;;;;;;5.20;3.50;;;18.30;99.90;;;;;;5055464;28;20721;-58
2022/08/01 03:18:39;;;;;;;4.73;4.20;;;18.20;99.90;;;;;;5054887;28;20733;-58
2022/08/01 03:21:09;;;;;;;4.93;4.00;;;18.30;99.90;;;;;;5055256;28;20743;-59
2022/08/01 03:23:39;;;;;;;4.27;3.50;;;18.30;99.90;;;;;;5054493;28;20260;-59
2022/08/01 03:26:07;;;;;;;4.87;3.90;;;18.30;99.90;;;;;;5055091;28;20238;-59
2022/08/01 03:28:38;;;;;;;4.97;4.03;;;18.30;99.90;;;;;;5054662;28;20320;-58
2022/08/01 03:31:06;;;;;;;5.03;4.27;;;18.30;99.90;;;;;;5054528;28;20617;-58
2022/08/01 03:33:34;;;;;;;3.67;3.30;;;18.30;99.90;;;;;;5054619;28;20309;-58
2022/08/01 03:36:09;;;;;;;3.90;3.20;;;18.30;99.90;;;;;;5054794;28;20332;-59
2022/08/01 03:38:40;;;;;;;3.47;3.17;;;18.30;99.90;;;;;;5054717;28;20312;-59
2022/08/01 03:41:11;;;;;;;3.70;3.40;;;18.30;99.90;;;;;;5055166;28;20243;-59
2022/08/01 03:43:45;;;;;;;3.50;3.17;;;18.30;99.90;;;;;;5054393;28;20766;-58
2022/08/01 03:46:18;;;;;;;4.03;2.97;;;18.30;99.90;;;;;;5054768;28;20317;-59
2022/08/01 03:48:49;;;;;;;3.30;2.80;;;18.30;99.90;;;;;;5054130;28;20228;-59
2022/08/01 03:51:22;;;;;;;5.97;3.40;;;18.30;99.90;;;;;;5054626;28;20234;-58
2022/08/01 03:53:52;;;;;;;3.63;2.90;;;18.30;99.90;;;;;;5053929;28;20776;-58
2022/08/01 03:56:21;;;;;;;4.07;3.70;;;18.30;99.90;;;;;;5054253;28;20233;-59
2022/08/01 03:58:51;;;;;;;3.20;2.90;;;18.30;99.90;;;;;;5054117;28;20320;-59
2022/08/01 04:01:20;;;;;;;4.87;3.80;;;18.30;99.90;;;;;;5053877;28;20329;-59
2022/08/01 04:03:48;;;;;;;4.20;3.47;;;18.30;99.90;;;;;;5053766;28;20238;-58
2022/08/01 04:06:17;;;;;;;4.30;3.90;;;18.30;99.90;;;;;;5054300;28;20313;-58
2022/08/01 04:08:55;;;;;;;4.77;3.90;;;18.20;99.90;;;;;;5053775;28;20243;-59
2022/08/01 04:11:25;;;;;;;4.13;3.70;;;18.20;99.90;;;;;;5054547;28;20623;-59
2022/08/01 04:13:54;;;;;;;4.10;3.37;;;18.20;99.90;;;;;;5053855;28;20276;-59
2022/08/01 04:16:22;;;;;;;3.90;2.77;;;18.10;99.90;;;;;;5054292;28;20569;-59
2022/08/01 04:18:51;;;;;;;3.23;2.93;;;18.10;99.90;;;;;;5053606;28;20357;-59
2022/08/01 04:21:24;;;;;;;4.00;2.70;;;18.10;99.90;;;;;;5053942;28;20321;-59
2022/08/01 04:23:54;;;;;;;3.10;2.37;;;18.10;99.90;;;;;;5053659;28;20248;-59
2022/08/01 04:26:24;;;;;;;4.27;2.57;;;18.10;99.90;;;;;;5054094;28;20261;-58
2022/08/01 04:28:55;;;;;;;5.63;2.57;;;18.10;99.90;;;;;;5054002;28;20260;-58
2022/08/01 04:31:25;;;;;;;4.00;2.43;;;18.10;99.90;;;;;;5052946;28;20248;-57
2022/08/01 04:33:56;;;;;;;4.03;2.43;;;18.10;99.90;;;;;;5053504;28;20252;-58
2022/08/01 04:36:25;;;;;;;3.00;2.03;;;18.10;99.90;;;;;;5052617;28;20312;-58
2022/08/01 04:38:58;;;;;;;3.83;2.10;;;18.10;99.90;;;;;;5053132;28;20249;-59
2022/08/01 04:41:27;;;;;;;3.27;2.13;;;18.10;99.90;;;;;;5053555;28;20241;-58
2022/08/01 04:43:55;;;;;;;3.40;2.03;;;18.10;99.90;;;;;;5053503;28;20241;-59
2022/08/01 04:46:23;;;;;;;3.33;2.10;;;18.10;99.90;;;;;;5043536;28;20250;-58
2022/08/01 04:48:52;;;;;;;6.83;2.27;;;18.00;99.90;;;;;;5053260;28;20230;-58
2022/08/01 04:51:21;;;;;;;4.37;2.23;;;18.00;99.90;;;;;;5052691;28;20280;-58
2022/08/01 04:53:51;;;;;;;4.67;2.03;;;18.00;99.90;;;;;;5052609;28;20232;-59
2022/08/01 04:56:21;;;;;;;7.23;2.00;;;18.00;99.90;;;;;;5052718;28;20263;-58
2022/08/01 04:59:39;;;;;;;5.83;2.00;;;18.00;99.90;;;;;;5049924;28;20329;-58
2022/08/01 05:01:50;;;;;;;7.13;2.07;;;18.00;99.90;;;;;;5051806;28;20241;-60
2022/08/01 05:04:18;;;;;;;5.27;2.00;;;18.00;99.90;;;;;;5052872;28;20233;-59
2022/08/01 05:06:46;;;;;;;4.40;1.70;;;18.00;99.90;;;;;;5052403;28;20220;-59
2022/08/01 05:09:15;;;;;;;4.13;2.00;;;18.00;99.90;;;;;;5053124;28;20693;-58
2022/08/01 05:11:45;;;;;;;4.50;1.83;;;17.90;99.90;;;;;;5052898;28;20689;-59
2022/08/01 05:14:13;;;;;;;4.73;2.03;;;17.80;99.90;;;;;;5053143;28;20712;-59
2022/08/01 05:16:41;;;;;;;4.07;1.90;;;17.80;99.90;;;;;;5052829;28;20291;-58
2022/08/01 05:19:10;;;;;;;4.57;2.33;;;17.80;99.90;;;;;;5053246;28;20237;-58
2022/08/01 05:21:38;;;;;;;4.00;1.87;;;17.80;99.90;;;;;;5052748;28;20256;-58
2022/08/01 05:24:06;;;;;;;6.60;1.93;;;17.80;99.90;;;;;;5057871;28;20308;-59
2022/08/01 05:26:35;;;;;;;3.83;2.00;;;17.90;99.90;;;;;;5052561;28;20230;-58
2022/08/01 05:29:05;;;;;;;5.83;2.10;;;17.90;99.90;;;;;;5052000;28;20261;-59
2022/08/01 05:31:34;;;;;;;6.23;2.30;;;17.90;99.90;;;;;;5051180;28;20252;-59
2022/08/01 05:34:02;;;;;;;6.33;2.40;;;17.90;99.90;;;;;;5052818;28;20639;-57
2022/08/01 05:36:31;;;;;;;4.60;2.30;;;17.90;99.90;;;;;;5052266;28;20233;-58
2022/08/01 05:38:59;;;;;;;6.13;2.30;;;18.00;99.90;;;;;;5052677;28;20233;-58
2022/08/01 05:41:27;;;;;;;5.33;2.50;;;18.00;99.90;;;;;;5041900;28;20303;-58
2022/08/01 05:43:55;;;;;;;9.70;2.33;;;17.90;99.90;;;;;;5043652;28;20688;-58
2022/08/01 05:46:25;;;;;;;6.83;2.80;;;17.90;99.90;;;;;;5053165;28;20700;-58
2022/08/01 05:48:54;;;;;;;5.77;2.17;;;18.00;99.90;;;;;;5052505;28;20227;-58
2022/08/01 05:51:22;;;;;;;6.80;2.40;;;18.00;99.90;;;;;;5052922;28;20636;-58
2022/08/01 05:53:51;;;;;;;6.30;2.23;;;18.00;99.90;;;;;;5057774;28;20752;-58
2022/08/01 05:56:19;;;;;;;8.50;2.40;;;18.10;99.90;;;;;;5052340;28;20601;-59
2022/08/01 05:58:47;;;;;;;7.10;2.73;;;18.10;99.90;;;;;;5052295;28;20287;-59
2022/08/01 06:01:16;;;;;;;7.93;2.50;;;18.00;99.90;;;;;;5052127;28;20232;-59
2022/08/01 06:03:46;;;;;;;8.80;2.30;;;18.00;99.90;;;;;;5051170;28;20233;-58
2022/08/01 06:06:14;;;;;;;5.47;2.27;;;17.90;99.90;;;;;;5051955;28;20321;-58
2022/08/01 06:08:43;;;;;;;8.60;2.53;;;17.90;99.90;;;;;;5052354;28;20314;-58
2022/08/01 06:11:11;;;;;;;6.50;2.57;;;17.90;99.90;;;;;;5052374;28;20240;-58
2022/08/01 06:13:40;;;;;;;7.73;2.90;;;17.90;99.90;;;;;;5049803;28;20268;-59
2022/08/01 06:16:16;;;;;;;5.17;2.13;;;17.80;99.90;;;;;;5052289;28;20696;-58
2022/08/01 06:18:45;;;;;;;9.20;2.33;;;17.80;99.90;;;;;;5052424;28;20704;-58
2022/08/01 06:21:13;;;;;;;11.50;2.20;;;17.70;99.90;;;;;;5052498;28;20217;-59
2022/08/01 06:23:42;;;;;;;6.60;2.07;;;17.60;99.90;;;;;;5051800;28;20225;-59
2022/08/01 06:26:10;;;;;;;7.23;2.40;;;17.60;99.90;;;;;;5043842;28;20236;-58
2022/08/01 06:28:39;;;;;;;8.17;2.50;;;17.70;99.90;;;;;;5052421;28;20375;-59
2022/08/01 06:31:07;;;;;;;8.07;2.43;;;17.70;99.90;;;;;;5051454;28;20257;-58
2022/08/01 06:33:35;;;;;;;8.97;2.67;;;17.80;99.90;;;;;;5052029;28;20313;-58
2022/08/01 06:36:05;;;;;;;13.40;3.17;;;17.80;99.90;;;;;;5052104;28;20303;-59
2022/08/01 06:38:33;;;;;;;10.97;3.10;;;17.80;99.90;;;;;;5052112;28;20318;-58
2022/08/01 06:41:02;;;;;;;11.77;3.03;;;17.80;99.90;;;;;;5052902;28;20229;-59
2022/08/01 06:43:31;;;;;;;13.03;3.40;;;17.90;99.90;;;;;;5055379;28;20245;-58
2022/08/01 06:45:59;;;;;;;12.23;4.03;;;17.90;99.90;;;;;;5056257;28;20719;-58
2022/08/01 06:48:27;;;;;;;12.70;3.43;;;18.00;99.90;;;;;;5055172;28;20233;-58
2022/08/01 06:51:08;;;;;;;11.77;4.00;;;18.00;99.90;;;;;;5049559;28;20592;-58
2022/08/01 06:53:38;;;;;;;14.13;3.43;;;18.00;99.90;;;;;;5050558;28;20241;-58
2022/08/01 06:56:08;;;;;;;14.03;3.40;;;18.10;99.90;;;;;;5055550;28;20257;-59
2022/08/01 06:58:36;;;;;;;18.43;3.50;;;18.00;99.90;;;;;;5055200;28;20272;-58
2022/08/01 07:01:06;;;;;;;12.70;3.07;;;18.00;99.90;;;;;;5054822;28;20236;-58
2022/08/01 07:03:35;;;;;;;13.33;3.43;;;18.10;99.90;;;;;;5049503;28;20230;-58
2022/08/01 07:06:21;;;;;;;15.63;3.50;;;18.10;99.90;;;;;;5048904;28;20232;-59
2022/08/01 07:08:50;;;;;;;13.73;3.20;;;18.20;99.90;;;;;;5055336;28;20240;-59
2022/08/01 07:11:19;;;;;;;15.87;3.13;;;18.30;99.90;;;;;;5055446;28;20268;-59
2022/08/01 07:13:47;;;;;;;14.03;3.43;;;18.40;99.90;;;;;;5053925;28;20291;-57
2022/08/01 07:16:16;;;;;;;15.57;4.03;;;18.50;99.90;;;;;;5055374;28;20585;-58
2022/08/01 07:18:44;;;;;;;10.70;3.07;;;18.50;99.90;;;;;;5054525;28;20230;-59
2022/08/01 07:21:13;;;;;;;11.83;3.20;;;18.50;99.90;;;;;;5053370;28;20316;-58
2022/08/01 07:24:02;;;;;;;12.30;3.03;;;18.60;99.90;;;;;;5052425;28;20232;-58
2022/08/01 07:26:41;;;;;;;10.90;3.00;;;18.60;99.90;;;;;;5053489;28;20233;-58
2022/08/01 07:29:22;;;;;;;14.37;3.27;;;18.70;99.90;;;;;;5048917;28;20648;-58
2022/08/01 07:31:50;;;;;;;14.17;3.17;;;18.90;99.90;;;;;;5053480;28;20222;-59
2022/08/01 07:34:18;;;;;;;10.97;2.80;;;18.80;99.90;;;;;;5054047;28;20218;-59
2022/08/01 07:36:46;;;;;;;11.63;2.90;;;18.80;99.90;;;;;;5053592;28;20261;-58
2022/08/01 07:39:16;;;;;;;8.67;2.27;;;18.90;99.90;;;;;;5054496;28;20316;-58
2022/08/01 07:41:44;;;;;;;9.43;2.93;;;18.80;99.90;;;;;;5053476;28;20315;-57
2022/08/01 07:44:32;;;;;;;11.97;2.77;;;18.80;99.90;;;;;;5053482;28;20218;-57
2022/08/01 07:47:00;;;;;;;14.60;2.60;;;19.20;99.90;;;;;;5053938;28;20274;-58
2022/08/01 07:49:28;;;;;;;9.17;2.70;;;19.80;99.90;;;;;;5053591;28;20229;-58
2022/08/01 07:51:57;;;;;;;12.50;2.53;;;20.30;99.90;;;;;;5035986;28;20232;-58
2022/08/01 07:54:32;;;;;;;10.83;2.63;;;20.80;99.90;;;;;;5051552;28;20243;-57
2022/08/01 07:57:02;;;;;;;13.67;3.17;;;21.30;99.90;;;;;;5051628;28;20709;-58
2022/08/01 07:59:30;;;;;;;10.27;3.07;;;21.00;99.90;;;;;;5049077;28;20255;-58
2022/08/01 08:01:58;;;;;;;11.30;2.70;;;20.70;99.90;;;;;;5055258;28;20661;-58
2022/08/01 08:04:28;;;;;;;13.07;2.70;;;20.80;99.90;;;;;;5063584;28;20274;-57
2022/08/01 08:06:56;;;;;;;8.97;2.60;;;21.20;99.90;;;;;;5054288;28;20313;-58
2022/08/01 08:09:24;;;;;;;9.53;2.50;;;21.70;99.90;;;;;;5054133;28;20231;-59
2022/08/01 08:11:54;;;;;;;9.87;2.60;;;21.70;99.90;;;;;;5034238;28;20298;-59
2022/08/01 08:14:23;;;;;;;10.67;2.60;;;21.30;99.90;;;;;;5049252;28;20239;-59
2022/08/01 08:17:00;;;;;;;7.97;2.37;;;21.00;99.90;;;;;;5054079;28;20227;-57
2022/08/01 08:19:29;;;;;;;11.77;2.30;;;21.20;99.90;;;;;;5054115;28;20236;-57
2022/08/01 08:22:07;;;;;;;9.83;2.40;;;21.50;99.90;;;;;;5054062;28;20258;-57
2022/08/01 08:24:36;;;;;;;12.27;2.30;;;21.40;99.90;;;;;;5053470;28;20580;-58
2022/08/01 08:27:15;;;;;;;10.97;2.50;;;21.30;99.90;;;;;;5034149;28;20231;-58
2022/08/01 08:29:46;;;;;;;8.20;2.07;;;21.40;99.90;;;;;;5047374;28;20235;-57
2022/08/01 08:32:14;;;;;;;13.13;2.70;;;22.00;99.90;;;;;;5052308;28;20317;-58
2022/08/01 08:34:43;;;;;;;7.87;2.00;;;22.30;99.90;;;;;;5052970;28;20258;-57
2022/08/01 08:37:11;;;;;;;8.17;2.07;;;22.70;99.90;;;;;;5039548;28;20283;-58
2022/08/01 08:39:39;;;;;;;9.53;2.10;;;22.90;99.90;;;;;;5053426;28;20688;-58
2022/08/01 08:42:10;;;;;;;9.03;2.53;;;22.80;99.90;;;;;;5053737;28;20794;-59
2022/08/01 08:44:42;;;;;;;11.43;2.67;;;23.20;99.90;;;;;;5053264;28;20261;-58
2022/08/01 08:47:13;;;;;;;10.43;2.60;;;23.60;99.90;;;;;;5048491;28;20232;-58
2022/08/01 08:49:48;;;;;;;7.80;2.30;;;23.40;99.90;;;;;;5033259;28;20229;-58
2022/08/01 08:52:19;;;;;;;9.50;2.60;;;23.30;99.90;;;;;;5035318;28;20232;-58
2022/08/01 08:54:50;;;;;;;6.77;2.13;;;23.30;99.90;;;;;;5052710;28;20243;-57
2022/08/01 08:57:20;;;;;;;9.33;2.00;;;23.40;99.90;;;;;;5053520;28;20311;-58
2022/08/01 08:59:53;;;;;;;9.83;2.73;;;23.70;99.90;;;;;;5052659;28;20646;-59
2022/08/01 09:02:23;;;;;;;8.50;2.10;;;23.60;99.90;;;;;;5052075;28;20227;-59
2022/08/01 09:04:51;;;;;;;8.67;2.23;;;24.00;99.90;;;;;;5050595;28;20273;-57
2022/08/01 09:07:19;;;;;;;10.47;2.33;;;24.40;99.90;;;;;;5052516;28;20326;-58
2022/08/01 09:09:49;;;;;;;9.30;2.07;;;23.60;99.90;;;;;;5052659;28;20311;-58
2022/08/01 09:12:20;;;;;;;5.17;1.80;;;23.30;99.90;;;;;;5050886;28;20311;-58
2022/08/01 09:14:53;;;;;;;10.90;2.00;;;23.20;99.90;;;;;;5052691;28;20227;-59
2022/08/01 09:17:21;;;;;;;7.90;2.37;;;23.50;99.90;;;;;;5050850;28;20223;-58
2022/08/01 09:19:52;;;;;;;8.80;2.40;;;24.00;99.90;;;;;;5052488;28;20224;-59
2022/08/01 09:22:23;;;;;;;8.50;2.07;;;24.20;99.90;;;;;;5052609;28;20231;-58
2022/08/01 09:24:59;;;;;;;7.37;1.97;;;24.70;99.90;;;;;;5050274;28;20254;-58
2022/08/01 09:27:28;;;;;;;7.83;1.97;;;24.80;99.90;;;;;;5052346;28;20220;-58
2022/08/01 09:30:09;;;;;;;8.10;2.10;;;24.60;99.90;;;;;;5053109;28;20231;-58
2022/08/01 09:32:54;;;;;;;8.10;1.90;;;24.30;99.90;;;;;;5052469;28;20319;-58
2022/08/01 09:35:28;;;;;;;9.80;2.03;;;24.80;99.90;;;;;;5052320;28;20234;-56
2022/08/01 09:38:15;;;;;;;8.30;1.90;;;24.50;99.90;;;;;;5049833;28;20231;-58
2022/08/01 09:40:52;;;;;;;8.33;1.90;;;24.50;99.90;;;;;;5050427;28;20232;-58
2022/08/01 09:43:22;;;;;;;10.10;2.07;;;25.00;99.90;;;;;;5050281;28;20233;-58
2022/08/01 09:45:52;;;;;;;7.03;2.40;;;25.70;99.90;;;;;;5051564;28;20328;-58
2022/08/01 09:48:23;;;;;;;10.70;2.80;;;25.00;99.90;;;;;;5052111;28;20229;-59
2022/08/01 09:50:57;;;;;;;7.47;1.87;;;24.40;99.90;;;;;;5052793;28;20246;-59
2022/08/01 09:53:44;;;;;;;7.60;2.37;;;25.00;99.90;;;;;;5052072;28;20243;-58
2022/08/01 09:56:21;;;;;;;7.93;2.20;;;25.80;99.90;;;;;;5037172;28;20315;-58
2022/08/01 09:58:54;;;;;;;7.13;2.13;;;25.50;99.90;;;;;;5041306;28;20234;-59
2022/08/01 10:01:43;;;;;;;11.77;2.60;;;25.00;99.90;;;;;;5052046;28;20325;-58
2022/08/01 10:04:13;;;;;;;6.83;1.87;;;24.80;99.90;;;;;;5052195;28;20239;-59
2022/08/01 10:06:44;;;;;;;7.23;2.00;;;24.50;99.90;;;;;;5052040;28;20237;-59
2022/08/01 10:09:13;;;;;;;9.83;1.90;;;24.60;99.90;;;;;;5052642;28;20278;-59
2022/08/01 10:11:42;;;;;;;6.27;1.93;;;25.10;99.90;;;;;;5052060;28;20328;-58
2022/08/01 10:14:14;;;;;;;8.20;1.90;;;25.90;99.90;;;;;;5052612;28;20230;-59
2022/08/01 10:16:50;;;;;;;7.20;2.00;;;25.30;99.90;;;;;;5054579;28;20725;-58
2022/08/01 10:19:23;;;;;;;10.00;1.90;;;25.20;99.90;;;;;;5050173;28;20225;-57
2022/08/01 10:21:53;;;;;;;9.60;2.20;;;25.10;99.90;;;;;;5042135;28;20809;-58
2022/08/01 10:24:28;;;;;;;7.17;1.70;;;25.60;99.90;;;;;;5041961;28;20333;-57
2022/08/01 10:27:04;;;;;;;7.73;1.83;;;25.50;99.90;;;;;;5041972;28;20247;-58
2022/08/01 10:29:42;;;;;;;8.33;2.40;;;25.90;99.90;;;;;;5048448;28;20237;-58
2022/08/01 10:32:16;;;;;;;7.83;1.77;;;26.10;99.90;;;;;;5052091;28;20241;-58
2022/08/01 10:34:46;;;;;;;7.80;2.00;;;26.60;99.90;;;;;;5052284;28;20317;-59
2022/08/01 10:37:17;;;;;;;5.23;1.97;;;26.60;99.90;;;;;;5051946;28;20255;-58
2022/08/01 10:39:45;;;;;;;7.90;2.20;;;26.50;99.90;;;;;;5046839;28;20256;-59
2022/08/01 10:42:14;;;;;;;9.67;2.10;;;26.90;99.90;;;;;;5050050;28;20292;-58
2022/08/01 10:44:46;;;;;;;10.73;2.00;;;27.10;99.90;;;;;;5050216;28;20233;-59
2022/08/01 10:47:32;;;;;;;6.70;1.80;;;27.00;99.90;;;;;;5044069;28;20237;-57
2022/08/01 10:50:23;;;;;;;8.27;2.23;;;26.90;99.90;;;;;;5041619;28;20701;-58
2022/08/01 10:53:11;;;;;;;7.93;1.90;;;27.10;99.90;;;;;;5046811;28;20225;-58
2022/08/01 10:55:52;;;;;;;7.00;1.60;;;26.80;99.90;;;;;;5044726;28;20238;-58
2022/08/01 10:58:26;;;;;;;8.93;1.73;;;26.90;99.90;;;;;;5041748;28;20233;-56
2022/08/01 11:01:19;;;;;;;7.17;1.97;;;26.90;99.90;;;;;;5042906;28;20284;-57
2022/08/01 11:04:03;;;;;;;6.27;1.40;;;26.90;99.90;;;;;;5045325;28;20256;-59
2022/08/01 11:06:42;;;;;;;6.00;1.53;;;27.20;99.90;;;;;;5045640;28;20234;-57
2022/08/01 11:09:30;;;;;;;8.07;1.90;;;27.00;99.90;;;;;;5040881;28;20328;-57
2022/08/01 11:12:08;;;;;;;6.47;1.70;;;27.20;99.90;;;;;;5043397;28;20713;-55
2022/08/01 11:15:30;;;;;;;4.50;1.57;;;27.50;99.90;;;;;;5043822;28;20229;-57
2022/08/01 11:18:04;;;;;;;6.47;1.67;;;27.60;99.90;;;;;;4983593;28;20245;-57
2022/08/01 11:20:36;;;;;;;8.97;1.80;;;27.50;99.90;;;;;;5033515;28;20338;-58
2022/08/01 11:23:19;;;;;;;7.00;1.50;;;27.30;99.90;;;;;;5043616;28;20291;-57
2022/08/01 11:26:13;;;;;;;5.83;1.67;;;26.80;99.90;;;;;;5043194;28;20230;-57
2022/08/01 11:28:46;;;;;;;9.00;1.70;;;26.80;99.90;;;;;;5038240;28;20266;-57
2022/08/01 11:31:35;;;;;;;4.97;1.70;;;26.90;99.90;;;;;;5043031;28;20242;-57
2022/08/01 11:34:05;;;;;;;4.23;1.30;;;27.30;99.90;;;;;;5044920;28;20251;-58
2022/08/01 11:36:35;;;;;;;4.50;1.60;;;27.50;99.90;;;;;;5054383;28;20269;-59
2022/08/01 11:39:23;;;;;;;6.67;1.80;;;27.70;99.90;;;;;;5054456;28;20320;-59
2022/08/01 11:41:54;;;;;;;8.13;1.87;;;27.60;99.90;;;;;;5054201;28;20234;-58
2022/08/01 11:44:25;;;;;;;4.47;1.60;;;27.60;99.90;;;;;;5054472;28;20227;-58
2022/08/01 11:47:02;;;;;;;4.03;1.53;;;27.80;99.90;;;;;;5054745;28;20702;-59
2022/08/01 11:49:57;;;;;;;7.77;1.70;;;27.40;99.90;;;;;;5054392;28;20670;-58
2022/08/01 11:52:28;;;;;;;11.67;2.10;;;26.50;99.90;;;;;;5051815;28;20227;-60
2022/08/01 11:54:58;;;;;;;5.87;1.43;;;26.30;99.90;;;;;;5056016;28;20651;-59
2022/08/01 11:57:30;;;;;;;7.13;1.77;;;26.10;99.90;;;;;;5053687;28;20255;-58
2022/08/01 12:00:06;;;;;;;6.60;1.67;;;26.40;99.90;;;;;;5052571;28;20727;-58
2022/08/01 12:02:42;;;;;;;5.60;1.40;;;26.30;99.90;;;;;;5053851;28;20242;-59
2022/08/01 12:05:14;;;;;;;6.27;1.60;;;25.80;99.90;;;;;;5044643;28;20233;-59
2022/08/01 12:07:46;;;;;;;6.27;1.50;;;25.20;99.90;;;;;;5054307;28;20235;-59
2022/08/01 12:10:16;;;;;;;4.37;1.50;;;25.10;99.90;;;;;;5053943;28;20284;-59
2022/08/01 12:12:46;;;;;;;7.63;1.97;;;25.20;99.90;;;;;;5054099;28;20243;-59
2022/08/01 12:15:14;;;;;;;6.20;1.63;;;25.00;99.90;;;;;;5054416;28;20233;-58
2022/08/01 12:17:43;;;;;;;9.17;1.80;;;25.00;99.90;;;;;;5053631;28;20226;-60
2022/08/01 12:20:25;;;;;;;11.03;2.00;;;24.70;99.90;;;;;;5053717;28;20649;-58
2022/08/01 12:23:00;;;;;;;7.67;2.10;;;24.20;99.90;;;;;;5055749;28;20610;-58
2022/08/01 12:25:29;;;;;;;8.73;2.03;;;24.20;99.90;;;;;;5050583;28;20641;-59
2022/08/01 12:28:01;;;;;;;6.80;1.73;;;24.20;99.90;;;;;;5053353;28;20226;-57
2022/08/01 12:30:30;;;;;;;6.60;1.90;;;24.00;99.90;;;;;;5051058;28;20748;-58
2022/08/01 12:32:59;;;;;;;9.37;1.80;;;23.60;99.90;;;;;;5053273;28;20230;-60
2022/08/01 12:35:29;;;;;;;6.47;1.70;;;23.40;99.90;;;;;;5048918;28;20254;-58
2022/08/01 12:38:00;;;;;;;8.70;1.80;;;23.10;99.90;;;;;;5051570;28;20249;-61
2022/08/01 12:40:31;;;;;;;7.57;1.60;;;23.30;99.90;;;;;;5043093;28;21527;-61
2022/08/01 12:43:01;;;;;;;7.47;2.00;;;23.40;99.90;;;;;;5048655;28;20295;-64
2022/08/01 12:45:33;;;;;;;6.13;1.70;;;23.80;99.90;;;;;;5048138;28;21398;-61
2022/08/01 12:48:02;;;;;;;5.23;1.43;;;23.40;99.90;;;;;;5045259;28;20304;-61
2022/08/01 12:50:32;;;;;;;5.63;1.70;;;23.50;99.90;;;;;;5049572;28;20228;-58
2022/08/01 12:53:03;;;;;;;6.43;1.60;;;23.40;99.90;;;;;;5049170;28;20707;-60
2022/08/01 12:55:36;;;;;;;5.00;1.50;;;23.30;99.90;;;;;;5048230;28;20231;-58
2022/08/01 12:58:24;;;;;;;6.67;1.50;;;23.30;99.90;;;;;;5045538;28;20226;-58
2022/08/01 13:01:04;;;;;;;7.20;1.90;;;23.30;99.90;;;;;;5048269;28;20274;-59
2022/08/01 13:03:33;;;;;;;6.67;1.50;;;23.10;99.90;;;;;;5047914;28;20770;-57
2022/08/01 13:06:01;;;;;;;5.90;1.60;;;23.00;99.90;;;;;;5048990;28;20583;-57
2022/08/01 13:08:33;;;;;;;6.53;1.60;;;23.10;99.90;;;;;;5045472;28;20306;-57